sensor_id;sensor_type;location;lat;lon;timestamp;temperature;humidity
66928;DHT22;59882;45.624;11.698;2023-01-10T00:00:20;6.40;85.00
66928;DHT22;59882;45.624;11.698;2023-01-10T00:02:45;6.40;85.00
66928;DHT22;59882;45.624;11.698;2023-01-10T00:05:11;6.50;84.90
66928;DHT22;59882;45.624;11.698;2023-01-10T00:07:36;6.40;84.90
66928;DHT22;59882;45.624;11.698;2023-01-10T00:10:02;6.50;85.00
66928;DHT22;59882;45.624;11.698;2023-01-10T00:12:28;6.50;85.00
66928;DHT22;59882;45.624;11.698;2023-01-10T00:15:12;6.40;84.80
66928;DHT22;59882;45.624;11.698;2023-01-10T00:17:37;6.40;84.70
66928;DHT22;59882;45.624;11.698;2023-01-10T00:20:03;6.30;84.70
66928;DHT22;59882;45.624;11.698;2023-01-10T00:22:29;6.30;84.70
66928;DHT22;59882;45.624;11.698;2023-01-10T00:24:55;6.30;84.70
66928;DHT22;59882;45.624;11.698;2023-01-10T00:27:20;6.30;84.80
66928;DHT22;59882;45.624;11.698;2023-01-10T00:29:49;6.30;84.90
66928;DHT22;59882;45.624;11.698;2023-01-10T00:32:19;6.30;84.70
66928;DHT22;59882;45.624;11.698;2023-01-10T00:34:45;6.20;84.70
66928;DHT22;59882;45.624;11.698;2023-01-10T00:37:11;6.20;84.80
66928;DHT22;59882;45.624;11.698;2023-01-10T00:39:36;6.10;85.00
66928;DHT22;59882;45.624;11.698;2023-01-10T00:42:02;6.10;85.30
66928;DHT22;59882;45.624;11.698;2023-01-10T00:44:46;6.10;85.30
66928;DHT22;59882;45.624;11.698;2023-01-10T00:47:12;6.10;85.60
66928;DHT22;59882;45.624;11.698;2023-01-10T00:49:38;6.10;86.00
66928;DHT22;59882;45.624;11.698;2023-01-10T00:52:04;6.00;86.10
66928;DHT22;59882;45.624;11.698;2023-01-10T00:54:30;6.00;86.20
66928;DHT22;59882;45.624;11.698;2023-01-10T00:56:55;6.00;86.10
66928;DHT22;59882;45.624;11.698;2023-01-10T00:59:22;6.00;86.10
66928;DHT22;59882;45.624;11.698;2023-01-10T01:01:48;6.00;86.10
66928;DHT22;59882;45.624;11.698;2023-01-10T01:04:14;6.00;86.30
66928;DHT22;59882;45.624;11.698;2023-01-10T01:06:41;6.00;86.50
66928;DHT22;59882;45.624;11.698;2023-01-10T01:09:07;6.10;86.60
66928;DHT22;59882;45.624;11.698;2023-01-10T01:11:32;6.10;86.50
66928;DHT22;59882;45.624;11.698;2023-01-10T01:13:58;6.20;86.40
66928;DHT22;59882;45.624;11.698;2023-01-10T01:16:23;6.20;86.40
66928;DHT22;59882;45.624;11.698;2023-01-10T01:18:49;6.20;86.30
66928;DHT22;59882;45.624;11.698;2023-01-10T01:21:15;6.30;86.00
66928;DHT22;59882;45.624;11.698;2023-01-10T01:23:41;6.30;85.80
66928;DHT22;59882;45.624;11.698;2023-01-10T01:26:06;6.20;85.30
66928;DHT22;59882;45.624;11.698;2023-01-10T01:28:32;6.20;85.20
66928;DHT22;59882;45.624;11.698;2023-01-10T01:30:58;6.20;84.90
66928;DHT22;59882;45.624;11.698;2023-01-10T01:33:23;6.20;84.90
66928;DHT22;59882;45.624;11.698;2023-01-10T01:35:49;6.30;84.50
66928;DHT22;59882;45.624;11.698;2023-01-10T01:38:16;6.20;83.90
66928;DHT22;59882;45.624;11.698;2023-01-10T01:40:42;6.20;83.70
66928;DHT22;59882;45.624;11.698;2023-01-10T01:43:25;6.20;83.60
66928;DHT22;59882;45.624;11.698;2023-01-10T01:45:51;6.10;83.40
66928;DHT22;59882;45.624;11.698;2023-01-10T01:48:32;6.10;83.30
66928;DHT22;59882;45.624;11.698;2023-01-10T01:51:16;6.10;83.50
66928;DHT22;59882;45.624;11.698;2023-01-10T01:54:02;6.10;83.70
66928;DHT22;59882;45.624;11.698;2023-01-10T01:56:34;6.10;83.60
66928;DHT22;59882;45.624;11.698;2023-01-10T01:59:06;6.20;83.40
66928;DHT22;59882;45.624;11.698;2023-01-10T02:01:33;6.20;83.20
66928;DHT22;59882;45.624;11.698;2023-01-10T02:04:06;6.10;83.30
66928;DHT22;59882;45.624;11.698;2023-01-10T02:06:33;6.10;83.40
66928;DHT22;59882;45.624;11.698;2023-01-10T02:09:15;6.20;83.40
66928;DHT22;59882;45.624;11.698;2023-01-10T02:11:43;6.20;83.50
66928;DHT22;59882;45.624;11.698;2023-01-10T02:14:10;6.10;83.40
66928;DHT22;59882;45.624;11.698;2023-01-10T02:16:36;6.10;83.50
66928;DHT22;59882;45.624;11.698;2023-01-10T02:19:03;6.00;83.20
66928;DHT22;59882;45.624;11.698;2023-01-10T02:21:55;6.00;82.90
66928;DHT22;59882;45.624;11.698;2023-01-10T02:27:21;5.90;82.40
66928;DHT22;59882;45.624;11.698;2023-01-10T02:32:39;5.80;82.50
66928;DHT22;59882;45.624;11.698;2023-01-10T02:35:23;5.80;82.40
66928;DHT22;59882;45.624;11.698;2023-01-10T02:38:39;5.80;82.50
66928;DHT22;59882;45.624;11.698;2023-01-10T02:41:15;5.80;82.30
66928;DHT22;59882;45.624;11.698;2023-01-10T02:44:03;5.80;82.50
66928;DHT22;59882;45.624;11.698;2023-01-10T02:46:33;5.80;82.70
66928;DHT22;59882;45.624;11.698;2023-01-10T02:48:59;5.70;82.00
66928;DHT22;59882;45.624;11.698;2023-01-10T02:51:27;5.60;82.10
66928;DHT22;59882;45.624;11.698;2023-01-10T02:53:58;5.60;81.90
66928;DHT22;59882;45.624;11.698;2023-01-10T03:01:52;5.40;82.10
66928;DHT22;59882;45.624;11.698;2023-01-10T03:07:41;5.30;82.50
66928;DHT22;59882;45.624;11.698;2023-01-10T03:10:05;5.20;82.30
66928;DHT22;59882;45.624;11.698;2023-01-10T03:14:58;5.20;82.00
66928;DHT22;59882;45.624;11.698;2023-01-10T03:17:25;5.10;82.00
66928;DHT22;59882;45.624;11.698;2023-01-10T03:19:56;5.10;81.90
66928;DHT22;59882;45.624;11.698;2023-01-10T03:22:24;5.10;82.10
66928;DHT22;59882;45.624;11.698;2023-01-10T03:24:53;5.10;82.00
66928;DHT22;59882;45.624;11.698;2023-01-10T03:30:52;5.00;81.30
66928;DHT22;59882;45.624;11.698;2023-01-10T03:33:24;5.00;81.40
66928;DHT22;59882;45.624;11.698;2023-01-10T03:35:58;5.00;80.90
66928;DHT22;59882;45.624;11.698;2023-01-10T03:38:40;5.10;80.60
66928;DHT22;59882;45.624;11.698;2023-01-10T03:52:33;5.00;79.10
66928;DHT22;59882;45.624;11.698;2023-01-10T03:54:59;5.00;78.70
66928;DHT22;59882;45.624;11.698;2023-01-10T03:57:27;4.90;78.80
66928;DHT22;59882;45.624;11.698;2023-01-10T03:59:54;5.00;79.60
66928;DHT22;59882;45.624;11.698;2023-01-10T04:02:25;5.00;79.70
66928;DHT22;59882;45.624;11.698;2023-01-10T04:04:51;4.90;77.00
66928;DHT22;59882;45.624;11.698;2023-01-10T04:07:16;4.90;76.60
66928;DHT22;59882;45.624;11.698;2023-01-10T04:09:42;5.00;78.00
66928;DHT22;59882;45.624;11.698;2023-01-10T04:12:08;4.90;77.70
66928;DHT22;59882;45.624;11.698;2023-01-10T04:14:33;4.90;74.80
66928;DHT22;59882;45.624;11.698;2023-01-10T04:16:59;4.90;74.30
66928;DHT22;59882;45.624;11.698;2023-01-10T04:19:25;5.00;73.00
66928;DHT22;59882;45.624;11.698;2023-01-10T04:21:51;4.90;71.00
66928;DHT22;59882;45.624;11.698;2023-01-10T04:24:16;4.90;71.70
66928;DHT22;59882;45.624;11.698;2023-01-10T04:26:42;5.00;69.60
66928;DHT22;59882;45.624;11.698;2023-01-10T04:29:09;5.00;70.20
66928;DHT22;59882;45.624;11.698;2023-01-10T04:31:35;5.00;69.00
66928;DHT22;59882;45.624;11.698;2023-01-10T04:34:00;5.00;68.20
66928;DHT22;59882;45.624;11.698;2023-01-10T04:36:26;5.10;70.80
66928;DHT22;59882;45.624;11.698;2023-01-10T04:38:52;5.10;72.00
66928;DHT22;59882;45.624;11.698;2023-01-10T04:41:17;5.10;69.10
66928;DHT22;59882;45.624;11.698;2023-01-10T04:43:43;5.10;69.00
66928;DHT22;59882;45.624;11.698;2023-01-10T04:46:09;5.10;69.10
66928;DHT22;59882;45.624;11.698;2023-01-10T04:48:34;5.10;69.70
66928;DHT22;59882;45.624;11.698;2023-01-10T04:51:02;5.20;68.40
66928;DHT22;59882;45.624;11.698;2023-01-10T04:53:28;5.20;68.30
66928;DHT22;59882;45.624;11.698;2023-01-10T04:55:53;5.20;68.30
66928;DHT22;59882;45.624;11.698;2023-01-10T04:58:19;5.20;68.60
66928;DHT22;59882;45.624;11.698;2023-01-10T05:00:45;5.20;68.70
66928;DHT22;59882;45.624;11.698;2023-01-10T05:03:11;5.20;69.60
66928;DHT22;59882;45.624;11.698;2023-01-10T05:05:36;5.10;69.50
66928;DHT22;59882;45.624;11.698;2023-01-10T05:08:02;5.10;69.00
66928;DHT22;59882;45.624;11.698;2023-01-10T05:10:28;5.10;69.30
66928;DHT22;59882;45.624;11.698;2023-01-10T05:12:53;5.10;70.00
66928;DHT22;59882;45.624;11.698;2023-01-10T05:15:19;5.10;68.90
66928;DHT22;59882;45.624;11.698;2023-01-10T05:17:47;5.00;68.90
66928;DHT22;59882;45.624;11.698;2023-01-10T05:20:13;5.10;70.10
66928;DHT22;59882;45.624;11.698;2023-01-10T05:22:38;5.00;70.80
66928;DHT22;59882;45.624;11.698;2023-01-10T05:25:05;5.10;70.90
66928;DHT22;59882;45.624;11.698;2023-01-10T05:27:30;5.00;68.20
66928;DHT22;59882;45.624;11.698;2023-01-10T05:29:56;5.00;67.60
66928;DHT22;59882;45.624;11.698;2023-01-10T05:32:21;5.00;67.70
66928;DHT22;59882;45.624;11.698;2023-01-10T05:34:48;5.00;66.80
66928;DHT22;59882;45.624;11.698;2023-01-10T05:37:13;5.10;67.50
66928;DHT22;59882;45.624;11.698;2023-01-10T05:39:39;5.10;67.80
66928;DHT22;59882;45.624;11.698;2023-01-10T05:42:06;5.10;68.30
66928;DHT22;59882;45.624;11.698;2023-01-10T05:44:31;5.10;68.70
66928;DHT22;59882;45.624;11.698;2023-01-10T05:46:57;5.10;68.60
66928;DHT22;59882;45.624;11.698;2023-01-10T05:49:22;5.10;68.30
66928;DHT22;59882;45.624;11.698;2023-01-10T05:51:48;5.10;67.50
66928;DHT22;59882;45.624;11.698;2023-01-10T05:54:14;5.10;69.00
66928;DHT22;59882;45.624;11.698;2023-01-10T05:56:39;5.20;69.70
66928;DHT22;59882;45.624;11.698;2023-01-10T05:59:05;5.10;68.40
66928;DHT22;59882;45.624;11.698;2023-01-10T06:01:30;5.10;67.90
66928;DHT22;59882;45.624;11.698;2023-01-10T06:03:56;5.10;68.70
66928;DHT22;59882;45.624;11.698;2023-01-10T06:06:21;5.10;69.30
66928;DHT22;59882;45.624;11.698;2023-01-10T06:08:47;5.00;67.20
66928;DHT22;59882;45.624;11.698;2023-01-10T06:11:13;5.10;66.90
66928;DHT22;59882;45.624;11.698;2023-01-10T06:13:38;5.10;68.40
66928;DHT22;59882;45.624;11.698;2023-01-10T06:16:04;5.10;68.70
66928;DHT22;59882;45.624;11.698;2023-01-10T06:18:30;5.10;66.90
66928;DHT22;59882;45.624;11.698;2023-01-10T06:20:56;5.10;66.90
66928;DHT22;59882;45.624;11.698;2023-01-10T06:23:21;5.00;65.90
66928;DHT22;59882;45.624;11.698;2023-01-10T06:25:47;5.10;65.90
66928;DHT22;59882;45.624;11.698;2023-01-10T06:28:13;5.10;65.70
66928;DHT22;59882;45.624;11.698;2023-01-10T06:30:42;5.10;65.80
66928;DHT22;59882;45.624;11.698;2023-01-10T06:33:08;5.20;66.20
66928;DHT22;59882;45.624;11.698;2023-01-10T06:35:35;5.20;66.70
66928;DHT22;59882;45.624;11.698;2023-01-10T06:38:01;5.20;66.40
66928;DHT22;59882;45.624;11.698;2023-01-10T06:40:27;5.20;63.10
66928;DHT22;59882;45.624;11.698;2023-01-10T06:42:53;5.20;63.40
66928;DHT22;59882;45.624;11.698;2023-01-10T06:45:19;5.30;62.70
66928;DHT22;59882;45.624;11.698;2023-01-10T06:47:44;5.30;61.70
66928;DHT22;59882;45.624;11.698;2023-01-10T06:50:11;5.30;62.30
66928;DHT22;59882;45.624;11.698;2023-01-10T06:52:37;5.30;60.90
66928;DHT22;59882;45.624;11.698;2023-01-10T06:55:04;5.40;60.50
66928;DHT22;59882;45.624;11.698;2023-01-10T06:57:29;5.40;61.00
66928;DHT22;59882;45.624;11.698;2023-01-10T06:59:55;5.40;60.80
66928;DHT22;59882;45.624;11.698;2023-01-10T07:02:21;5.40;60.60
66928;DHT22;59882;45.624;11.698;2023-01-10T07:04:49;5.40;62.40
66928;DHT22;59882;45.624;11.698;2023-01-10T07:07:15;5.40;60.40
66928;DHT22;59882;45.624;11.698;2023-01-10T07:09:40;5.40;60.10
66928;DHT22;59882;45.624;11.698;2023-01-10T07:12:06;5.40;60.00
66928;DHT22;59882;45.624;11.698;2023-01-10T07:14:32;5.40;60.30
66928;DHT22;59882;45.624;11.698;2023-01-10T07:16:58;5.40;60.80
66928;DHT22;59882;45.624;11.698;2023-01-10T07:19:23;5.40;58.70
66928;DHT22;59882;45.624;11.698;2023-01-10T07:21:49;5.50;59.70
66928;DHT22;59882;45.624;11.698;2023-01-10T07:24:14;5.60;59.00
66928;DHT22;59882;45.624;11.698;2023-01-10T07:26:40;5.60;58.80
66928;DHT22;59882;45.624;11.698;2023-01-10T07:29:06;5.70;60.30
66928;DHT22;59882;45.624;11.698;2023-01-10T07:31:31;5.70;60.70
66928;DHT22;59882;45.624;11.698;2023-01-10T07:33:57;5.70;58.50
66928;DHT22;59882;45.624;11.698;2023-01-10T07:36:23;5.80;60.10
66928;DHT22;59882;45.624;11.698;2023-01-10T07:38:48;5.80;61.40
66928;DHT22;59882;45.624;11.698;2023-01-10T07:41:14;5.80;61.80
66928;DHT22;59882;45.624;11.698;2023-01-10T07:43:40;5.80;58.00
66928;DHT22;59882;45.624;11.698;2023-01-10T07:46:06;5.80;59.50
66928;DHT22;59882;45.624;11.698;2023-01-10T07:48:34;5.90;60.20
66928;DHT22;59882;45.624;11.698;2023-01-10T07:51:01;5.90;59.60
66928;DHT22;59882;45.624;11.698;2023-01-10T07:53:27;5.90;60.90
66928;DHT22;59882;45.624;11.698;2023-01-10T07:55:57;6.00;58.10
66928;DHT22;59882;45.624;11.698;2023-01-10T07:58:22;6.00;59.00
66928;DHT22;59882;45.624;11.698;2023-01-10T08:00:48;6.10;60.50
66928;DHT22;59882;45.624;11.698;2023-01-10T08:03:15;6.10;58.30
66928;DHT22;59882;45.624;11.698;2023-01-10T08:05:41;6.20;59.00
66928;DHT22;59882;45.624;11.698;2023-01-10T08:08:09;6.20;58.90
66928;DHT22;59882;45.624;11.698;2023-01-10T08:10:36;6.20;59.00
66928;DHT22;59882;45.624;11.698;2023-01-10T08:13:02;6.30;58.30
66928;DHT22;59882;45.624;11.698;2023-01-10T08:15:28;6.30;60.00
66928;DHT22;59882;45.624;11.698;2023-01-10T08:17:54;6.40;57.60
66928;DHT22;59882;45.624;11.698;2023-01-10T08:20:19;6.50;57.70
66928;DHT22;59882;45.624;11.698;2023-01-10T08:22:45;6.60;57.00
66928;DHT22;59882;45.624;11.698;2023-01-10T08:25:11;6.80;53.70
66928;DHT22;59882;45.624;11.698;2023-01-10T08:27:37;7.00;55.90
66928;DHT22;59882;45.624;11.698;2023-01-10T08:30:04;7.10;55.60
66928;DHT22;59882;45.624;11.698;2023-01-10T08:32:29;7.10;55.50
66928;DHT22;59882;45.624;11.698;2023-01-10T08:34:55;7.20;57.10
66928;DHT22;59882;45.624;11.698;2023-01-10T08:37:20;7.30;57.40
66928;DHT22;59882;45.624;11.698;2023-01-10T08:39:46;7.30;58.90
66928;DHT22;59882;45.624;11.698;2023-01-10T08:42:12;7.40;59.50
66928;DHT22;59882;45.624;11.698;2023-01-10T08:44:37;7.40;60.90
66928;DHT22;59882;45.624;11.698;2023-01-10T08:47:03;7.40;59.70
66928;DHT22;59882;45.624;11.698;2023-01-10T08:49:29;7.40;58.90
66928;DHT22;59882;45.624;11.698;2023-01-10T08:51:54;7.40;60.10
66928;DHT22;59882;45.624;11.698;2023-01-10T08:54:20;7.40;60.50
66928;DHT22;59882;45.624;11.698;2023-01-10T08:56:46;7.50;61.90
66928;DHT22;59882;45.624;11.698;2023-01-10T08:59:11;7.50;62.70
66928;DHT22;59882;45.624;11.698;2023-01-10T09:01:37;7.50;62.90
66928;DHT22;59882;45.624;11.698;2023-01-10T09:04:02;7.60;63.20
66928;DHT22;59882;45.624;11.698;2023-01-10T09:06:29;7.60;63.90
66928;DHT22;59882;45.624;11.698;2023-01-10T09:08:55;7.50;64.10
66928;DHT22;59882;45.624;11.698;2023-01-10T09:11:20;7.60;64.10
66928;DHT22;59882;45.624;11.698;2023-01-10T09:13:49;7.60;62.90
66928;DHT22;59882;45.624;11.698;2023-01-10T09:16:15;7.70;63.00
66928;DHT22;59882;45.624;11.698;2023-01-10T09:18:41;7.70;63.60
66928;DHT22;59882;45.624;11.698;2023-01-10T09:21:07;7.80;65.80
66928;DHT22;59882;45.624;11.698;2023-01-10T09:23:32;7.80;65.50
66928;DHT22;59882;45.624;11.698;2023-01-10T09:25:59;7.80;65.30
66928;DHT22;59882;45.624;11.698;2023-01-10T09:28:25;7.90;65.50
66928;DHT22;59882;45.624;11.698;2023-01-10T09:30:51;7.90;66.00
66928;DHT22;59882;45.624;11.698;2023-01-10T09:33:17;7.90;66.30
66928;DHT22;59882;45.624;11.698;2023-01-10T09:35:43;7.90;66.40
66928;DHT22;59882;45.624;11.698;2023-01-10T09:38:11;8.00;66.90
66928;DHT22;59882;45.624;11.698;2023-01-10T09:40:59;8.00;67.00
66928;DHT22;59882;45.624;11.698;2023-01-10T09:46:51;8.00;66.60
66928;DHT22;59882;45.624;11.698;2023-01-10T09:51:56;8.10;65.50
66928;DHT22;59882;45.624;11.698;2023-01-10T09:54:32;8.10;65.80
66928;DHT22;59882;45.624;11.698;2023-01-10T09:57:00;8.20;63.60
66928;DHT22;59882;45.624;11.698;2023-01-10T09:59:37;8.30;64.00
66928;DHT22;59882;45.624;11.698;2023-01-10T10:04:45;8.40;61.80
66928;DHT22;59882;45.624;11.698;2023-01-10T10:07:17;8.60;59.50
66928;DHT22;59882;45.624;11.698;2023-01-10T10:09:42;8.70;61.20
66928;DHT22;59882;45.624;11.698;2023-01-10T10:12:40;8.80;60.60
66928;DHT22;59882;45.624;11.698;2023-01-10T10:15:14;8.90;60.60
66928;DHT22;59882;45.624;11.698;2023-01-10T10:20:35;9.10;61.70
66928;DHT22;59882;45.624;11.698;2023-01-10T10:34:11;9.60;63.30
66928;DHT22;59882;45.624;11.698;2023-01-10T10:36:58;9.70;61.90
66928;DHT22;59882;45.624;11.698;2023-01-10T10:39:35;9.80;61.30
66928;DHT22;59882;45.624;11.698;2023-01-10T10:42:02;9.90;59.70
66928;DHT22;59882;45.624;11.698;2023-01-10T10:44:54;9.90;60.40
66928;DHT22;59882;45.624;11.698;2023-01-10T10:47:27;10.00;60.90
66928;DHT22;59882;45.624;11.698;2023-01-10T10:50:01;10.00;61.20
66928;DHT22;59882;45.624;11.698;2023-01-10T10:52:32;10.10;61.10
66928;DHT22;59882;45.624;11.698;2023-01-10T10:54:59;10.20;63.30
66928;DHT22;59882;45.624;11.698;2023-01-10T10:57:30;10.30;64.00
66928;DHT22;59882;45.624;11.698;2023-01-10T10:59:57;10.40;63.50
66928;DHT22;59882;45.624;11.698;2023-01-10T11:02:29;10.40;63.60
66928;DHT22;59882;45.624;11.698;2023-01-10T11:04:59;10.50;64.40
66928;DHT22;59882;45.624;11.698;2023-01-10T11:07:30;10.60;64.40
66928;DHT22;59882;45.624;11.698;2023-01-10T11:09:57;10.70;63.50
66928;DHT22;59882;45.624;11.698;2023-01-10T11:12:44;10.80;61.30
66928;DHT22;59882;45.624;11.698;2023-01-10T11:15:42;10.90;62.40
66928;DHT22;59882;45.624;11.698;2023-01-10T11:20:36;11.20;64.20
66928;DHT22;59882;45.624;11.698;2023-01-10T11:23:10;11.30;66.10
66928;DHT22;59882;45.624;11.698;2023-01-10T11:25:36;11.40;66.90
66928;DHT22;59882;45.624;11.698;2023-01-10T11:28:13;11.40;67.30
66928;DHT22;59882;45.624;11.698;2023-01-10T11:30:45;11.40;66.50
66928;DHT22;59882;45.624;11.698;2023-01-10T11:33:26;11.50;65.70
66928;DHT22;59882;45.624;11.698;2023-01-10T11:36:04;11.70;65.50
66928;DHT22;59882;45.624;11.698;2023-01-10T11:38:32;11.80;65.40
66928;DHT22;59882;45.624;11.698;2023-01-10T11:43:36;12.00;60.40
66928;DHT22;59882;45.624;11.698;2023-01-10T11:51:28;12.40;52.60
66928;DHT22;59882;45.624;11.698;2023-01-10T11:54:09;12.50;52.30
66928;DHT22;59882;45.624;11.698;2023-01-10T11:56:36;12.70;51.40
66928;DHT22;59882;45.624;11.698;2023-01-10T11:59:13;12.80;50.50
66928;DHT22;59882;45.624;11.698;2023-01-10T12:04:20;13.00;47.40
66928;DHT22;59882;45.624;11.698;2023-01-10T12:06:50;13.10;49.80
66928;DHT22;59882;45.624;11.698;2023-01-10T12:09:36;13.20;49.90
66928;DHT22;59882;45.624;11.698;2023-01-10T12:12:21;13.40;49.40
66928;DHT22;59882;45.624;11.698;2023-01-10T12:14:48;13.50;44.80
66928;DHT22;59882;45.624;11.698;2023-01-10T12:19:43;15.50;44.30
66928;DHT22;59882;45.624;11.698;2023-01-10T12:22:11;17.90;38.60
66928;DHT22;59882;45.624;11.698;2023-01-10T12:24:41;20.50;28.90
66928;DHT22;59882;45.624;11.698;2023-01-10T12:27:12;22.70;27.30
66928;DHT22;59882;45.624;11.698;2023-01-10T12:30:24;24.70;25.30
66928;DHT22;59882;45.624;11.698;2023-01-10T12:32:37;26.30;22.70
66928;DHT22;59882;45.624;11.698;2023-01-10T12:35:09;27.90;20.10
66928;DHT22;59882;45.624;11.698;2023-01-10T12:37:50;29.10;21.50
66928;DHT22;59882;45.624;11.698;2023-01-10T12:40:41;30.10;18.30
66928;DHT22;59882;45.624;11.698;2023-01-10T12:43:27;31.30;16.10
66928;DHT22;59882;45.624;11.698;2023-01-10T12:46:18;32.00;20.00
66928;DHT22;59882;45.624;11.698;2023-01-10T12:48:54;32.70;19.60
66928;DHT22;59882;45.624;11.698;2023-01-10T12:51:25;33.30;17.50
66928;DHT22;59882;45.624;11.698;2023-01-10T12:53:56;33.60;14.10
66928;DHT22;59882;45.624;11.698;2023-01-10T12:56:23;33.80;13.30
66928;DHT22;59882;45.624;11.698;2023-01-10T12:58:58;33.80;12.80
66928;DHT22;59882;45.624;11.698;2023-01-10T13:01:31;33.90;12.80
66928;DHT22;59882;45.624;11.698;2023-01-10T13:04:03;34.10;14.00
66928;DHT22;59882;45.624;11.698;2023-01-10T13:06:35;34.40;13.20
66928;DHT22;59882;45.624;11.698;2023-01-10T13:09:06;34.50;13.50
66928;DHT22;59882;45.624;11.698;2023-01-10T13:11:41;34.70;14.70
66928;DHT22;59882;45.624;11.698;2023-01-10T13:14:12;34.70;13.10
66928;DHT22;59882;45.624;11.698;2023-01-10T13:21:37;34.50;12.90
66928;DHT22;59882;45.624;11.698;2023-01-10T13:24:15;34.50;13.00
66928;DHT22;59882;45.624;11.698;2023-01-10T13:26:55;34.40;12.30
66928;DHT22;59882;45.624;11.698;2023-01-10T13:29:29;34.20;13.00
66928;DHT22;59882;45.624;11.698;2023-01-10T13:32:01;34.00;12.40
66928;DHT22;59882;45.624;11.698;2023-01-10T13:34:33;33.90;13.10
66928;DHT22;59882;45.624;11.698;2023-01-10T13:37:03;33.80;13.30
66928;DHT22;59882;45.624;11.698;2023-01-10T13:39:37;33.70;13.60
66928;DHT22;59882;45.624;11.698;2023-01-10T14:03:47;31.80;13.30
66928;DHT22;59882;45.624;11.698;2023-01-10T14:14:18;27.90;16.90
66928;DHT22;59882;45.624;11.698;2023-01-10T14:16:47;27.40;16.70
66928;DHT22;59882;45.624;11.698;2023-01-10T14:19:41;26.70;17.00
66928;DHT22;59882;45.624;11.698;2023-01-10T14:22:27;25.80;18.30
66928;DHT22;59882;45.624;11.698;2023-01-10T14:24:56;24.70;19.50
66928;DHT22;59882;45.624;11.698;2023-01-10T14:27:23;23.60;20.50
66928;DHT22;59882;45.624;11.698;2023-01-10T14:29:54;22.80;21.00
66928;DHT22;59882;45.624;11.698;2023-01-10T14:32:37;21.90;22.00
66928;DHT22;59882;45.624;11.698;2023-01-10T14:35:07;21.00;22.70
66928;DHT22;59882;45.624;11.698;2023-01-10T14:40:09;20.20;24.50
66928;DHT22;59882;45.624;11.698;2023-01-10T14:42:40;19.80;25.10
66928;DHT22;59882;45.624;11.698;2023-01-10T14:48:27;18.90;26.80
66928;DHT22;59882;45.624;11.698;2023-01-10T14:51:29;18.50;27.50
66928;DHT22;59882;45.624;11.698;2023-01-10T14:56:35;17.90;28.90
66928;DHT22;59882;45.624;11.698;2023-01-10T14:59:37;17.60;28.80
66928;DHT22;59882;45.624;11.698;2023-01-10T15:05:10;17.00;28.90
66928;DHT22;59882;45.624;11.698;2023-01-10T15:07:37;16.60;28.20
66928;DHT22;59882;45.624;11.698;2023-01-10T15:10:19;16.50;28.80
66928;DHT22;59882;45.624;11.698;2023-01-10T15:12:46;16.30;28.80
66928;DHT22;59882;45.624;11.698;2023-01-10T15:15:16;16.20;29.30
66928;DHT22;59882;45.624;11.698;2023-01-10T15:17:43;16.00;29.30
66928;DHT22;59882;45.624;11.698;2023-01-10T15:20:14;15.90;29.60
66928;DHT22;59882;45.624;11.698;2023-01-10T15:22:52;15.70;29.90
66928;DHT22;59882;45.624;11.698;2023-01-10T15:25:33;15.50;30.00
66928;DHT22;59882;45.624;11.698;2023-01-10T15:28:03;15.40;30.60
66928;DHT22;59882;45.624;11.698;2023-01-10T15:30:34;15.30;30.80
66928;DHT22;59882;45.624;11.698;2023-01-10T15:33:03;15.20;31.00
66928;DHT22;59882;45.624;11.698;2023-01-10T15:35:30;15.00;31.30
66928;DHT22;59882;45.624;11.698;2023-01-10T15:38:07;14.90;32.30
66928;DHT22;59882;45.624;11.698;2023-01-10T15:40:35;14.90;33.30
66928;DHT22;59882;45.624;11.698;2023-01-10T15:45:43;14.50;34.90
66928;DHT22;59882;45.624;11.698;2023-01-10T15:48:39;14.40;35.60
66928;DHT22;59882;45.624;11.698;2023-01-10T15:56:27;13.90;35.30
66928;DHT22;59882;45.624;11.698;2023-01-10T15:58:55;13.70;35.70
66928;DHT22;59882;45.624;11.698;2023-01-10T16:01:21;13.60;35.50
66928;DHT22;59882;45.624;11.698;2023-01-10T16:03:55;13.50;36.50
66928;DHT22;59882;45.624;11.698;2023-01-10T16:08:52;13.30;36.20
66928;DHT22;59882;45.624;11.698;2023-01-10T16:11:34;13.10;35.10
66928;DHT22;59882;45.624;11.698;2023-01-10T16:14:19;12.90;34.80
66928;DHT22;59882;45.624;11.698;2023-01-10T16:16:45;12.80;34.50
66928;DHT22;59882;45.624;11.698;2023-01-10T16:19:10;12.70;33.70
66928;DHT22;59882;45.624;11.698;2023-01-10T16:21:45;12.60;34.10
66928;DHT22;59882;45.624;11.698;2023-01-10T16:24:17;12.60;34.20
66928;DHT22;59882;45.624;11.698;2023-01-10T16:26:45;12.60;34.50
66928;DHT22;59882;45.624;11.698;2023-01-10T16:29:10;12.40;34.70
66928;DHT22;59882;45.624;11.698;2023-01-10T16:31:36;12.40;35.50
66928;DHT22;59882;45.624;11.698;2023-01-10T16:34:02;12.30;35.10
66928;DHT22;59882;45.624;11.698;2023-01-10T16:36:27;12.30;34.50
66928;DHT22;59882;45.624;11.698;2023-01-10T16:38:53;12.10;33.90
66928;DHT22;59882;45.624;11.698;2023-01-10T16:41:19;12.10;33.80
66928;DHT22;59882;45.624;11.698;2023-01-10T16:44:03;12.00;33.90
66928;DHT22;59882;45.624;11.698;2023-01-10T16:46:28;12.00;34.10
66928;DHT22;59882;45.624;11.698;2023-01-10T16:48:54;12.00;33.70
66928;DHT22;59882;45.624;11.698;2023-01-10T16:51:21;11.90;33.40
66928;DHT22;59882;45.624;11.698;2023-01-10T16:53:47;11.90;32.80
66928;DHT22;59882;45.624;11.698;2023-01-10T16:56:15;11.90;33.10
66928;DHT22;59882;45.624;11.698;2023-01-10T16:58:41;11.90;33.40
66928;DHT22;59882;45.624;11.698;2023-01-10T17:01:13;11.90;33.10
66928;DHT22;59882;45.624;11.698;2023-01-10T17:03:41;11.90;33.60
66928;DHT22;59882;45.624;11.698;2023-01-10T17:06:09;11.90;34.20
66928;DHT22;59882;45.624;11.698;2023-01-10T17:08:35;11.90;35.00
66928;DHT22;59882;45.624;11.698;2023-01-10T17:11:04;11.80;35.60
66928;DHT22;59882;45.624;11.698;2023-01-10T17:13:37;11.80;36.40
66928;DHT22;59882;45.624;11.698;2023-01-10T17:16:04;11.70;36.40
66928;DHT22;59882;45.624;11.698;2023-01-10T17:18:29;11.60;36.30
66928;DHT22;59882;45.624;11.698;2023-01-10T17:20:56;11.50;37.30
66928;DHT22;59882;45.624;11.698;2023-01-10T17:23:22;11.50;37.50
66928;DHT22;59882;45.624;11.698;2023-01-10T17:25:48;11.40;37.70
66928;DHT22;59882;45.624;11.698;2023-01-10T17:28:15;11.30;37.60
66928;DHT22;59882;45.624;11.698;2023-01-10T17:30:42;11.20;37.80
66928;DHT22;59882;45.624;11.698;2023-01-10T17:33:08;11.10;37.70
66928;DHT22;59882;45.624;11.698;2023-01-10T17:35:41;11.00;37.00
66928;DHT22;59882;45.624;11.698;2023-01-10T17:38:10;11.00;36.80
66928;DHT22;59882;45.624;11.698;2023-01-10T17:40:44;10.90;36.50
66928;DHT22;59882;45.624;11.698;2023-01-10T17:43:11;10.80;36.40
66928;DHT22;59882;45.624;11.698;2023-01-10T17:45:41;10.70;35.80